Time;durP1;ratioP1;P1;durP2;ratioP2;P2;SDS_P1;SDS_P2;PMS_P1;PMS_P2;Temp;Humidity;BMP_temperature;BMP_pressure;BME280_temperature;BME280_humidity;BME280_pressure;Samples;Min_cycle;Max_cycle;Signal;HPM_P1;HPM_P2
2021/10/20 00:04:44;;;;;;;10.30;9.13;;;;;;;12.21;91.86;100272.16;10263891;28;20050;-64
2021/10/20 00:09:46;;;;;;;11.35;8.77;;;;;;;12.19;90.33;100266.13;10264481;28;20284;-63
2021/10/20 00:14:47;;;;;;;10.98;9.65;;;;;;;12.15;90.26;100256.69;10263463;28;20054;-64
2021/10/20 00:19:54;;;;;;;10.15;8.27;;;;;;;12.14;90.35;100257.66;10267704;28;20043;-63
2021/10/20 00:24:56;;;;;;;8.30;7.43;;;;;;;12.21;89.92;100253.50;10262242;28;20632;-64
2021/10/20 00:29:57;;;;;;;9.18;8.15;;;;;;;12.20;89.36;100243.78;10265499;28;20468;-63
2021/10/20 00:34:59;;;;;;;9.35;8.00;;;;;;;12.24;89.06;100245.22;10263120;28;20074;-63
2021/10/20 00:40:00;;;;;;;8.88;8.00;;;;;;;12.25;89.97;100248.72;10263281;28;20102;-63
2021/10/20 00:45:04;;;;;;;9.00;8.10;;;;;;;12.26;88.83;100253.91;10256502;28;20558;-64
2021/10/20 00:50:09;;;;;;;8.20;7.33;;;;;;;12.19;88.35;100242.94;10266102;28;20074;-63
2021/10/20 00:55:12;;;;;;;9.60;8.05;;;;;;;12.14;88.38;100244.31;10261086;28;20126;-63
2021/10/20 01:00:16;;;;;;;8.20;7.23;;;;;;;12.14;86.72;100231.81;10262528;28;20046;-64
2021/10/20 01:05:17;;;;;;;8.95;6.95;;;;;;;12.17;87.94;100233.38;10270171;28;20051;-64
2021/10/20 01:10:19;;;;;;;8.30;7.47;;;;;;;12.23;87.89;100224.84;10269411;28;20063;-63
2021/10/20 01:15:24;;;;;;;10.27;7.60;;;;;;;12.25;88.06;100209.56;10265136;28;20056;-63
2021/10/20 01:20:28;;;;;;;;;;;;;;;12.22;87.77;100199.16;10270243;28;20138;-63
2021/10/20 01:25:30;;;;;;;8.13;7.35;;;;;;;12.14;88.07;100185.63;10289624;28;19922;-64
2021/10/20 01:30:31;;;;;;;8.07;7.28;;;;;;;12.08;87.09;100188.84;10315319;28;20347;-65
2021/10/20 01:35:33;;;;;;;9.02;8.15;;;;;;;12.00;86.81;100178.84;10297334;28;20047;-64
2021/10/20 01:40:34;;;;;;;7.57;6.45;;;;;;;11.96;87.23;100174.75;10269832;28;20050;-64
2021/10/20 01:45:36;;;;;;;7.85;7.15;;;;;;;11.96;86.91;100172.06;10273510;28;20082;-63
2021/10/20 01:50:37;;;;;;;8.60;7.18;;;;;;;11.94;88.16;100153.53;10271136;28;20066;-64
2021/10/20 01:55:39;;;;;;;8.23;7.25;;;;;;;11.91;87.34;100145.78;10268017;28;20125;-64
2021/10/20 02:00:40;;;;;;;8.10;7.30;;;;;;;11.94;86.78;100150.88;10267060;28;20074;-64
2021/10/20 02:05:41;;;;;;;7.85;6.53;;;;;;;11.96;86.79;100134.72;10250510;28;20084;-63
2021/10/20 02:10:43;;;;;;;6.45;5.72;;;;;;;11.92;85.47;100131.47;10265661;28;20066;-64
2021/10/20 02:15:44;;;;;;;8.32;6.43;;;;;;;11.95;85.18;100117.03;10261135;28;20055;-64
2021/10/20 02:20:46;;;;;;;8.70;6.80;;;;;;;11.98;84.70;100092.75;10269246;28;20277;-63
2021/10/20 02:25:48;;;;;;;6.93;6.30;;;;;;;11.93;85.01;100090.50;10302651;28;20066;-64
2021/10/20 02:30:50;;;;;;;6.65;5.95;;;;;;;11.96;84.92;100087.53;10307000;28;20047;-64
2021/10/20 02:35:51;;;;;;;7.68;6.82;;;;;;;11.88;85.18;100095.38;10304639;28;20127;-65
2021/10/20 02:40:53;;;;;;;6.95;6.00;;;;;;;11.94;84.45;100088.69;10308793;28;20105;-64
2021/10/20 02:45:54;;;;;;;7.45;5.82;;;;;;;11.91;84.02;100087.09;10307666;28;20102;-64
2021/10/20 02:50:56;;;;;;;6.90;6.20;;;;;;;11.98;83.75;100074.94;10317061;28;20047;-64
2021/10/20 02:55:57;;;;;;;6.00;5.43;;;;;;;12.02;83.09;100076.34;10304834;28;20058;-64
2021/10/20 03:00:58;;;;;;;7.70;6.07;;;;;;;12.00;83.18;100061.47;10306386;28;20047;-64
2021/10/20 03:06:00;;;;;;;5.82;5.32;;;;;;;12.06;83.72;100057.41;10317640;28;20047;-68
2021/10/20 03:11:02;;;;;;;7.18;6.47;;;;;;;12.05;83.75;100064.53;10321596;28;20046;-64
2021/10/20 03:16:03;;;;;;;7.05;6.35;;;;;;;12.05;83.71;100063.72;10311688;28;20050;-64
2021/10/20 03:21:05;;;;;;;7.47;6.65;;;;;;;12.02;83.52;100057.69;10267917;28;20055;-64
2021/10/20 03:26:06;;;;;;;8.38;6.57;;;;;;;12.08;84.00;100053.59;10268231;28;20109;-64
2021/10/20 03:31:08;;;;;;;7.32;6.03;;;;;;;12.08;82.87;100055.44;10268291;28;20073;-63
2021/10/20 03:36:10;;;;;;;7.05;5.90;;;;;;;12.12;82.58;100060.34;10294430;28;20047;-65
2021/10/20 03:41:12;;;;;;;6.28;5.68;;;;;;;12.12;82.09;100059.53;10303699;28;20082;-65
2021/10/20 03:46:13;;;;;;;6.70;5.70;;;;;;;12.08;82.71;100052.78;10301269;28;20047;-64
2021/10/20 03:51:15;;;;;;;8.13;6.88;;;;;;;12.11;82.16;100041.81;10292446;28;20043;-64
2021/10/20 03:56:16;;;;;;;6.60;5.40;;;;;;;12.15;83.87;100052.06;10299728;28;20054;-64
2021/10/20 04:01:18;;;;;;;6.30;5.70;;;;;;;12.15;82.34;100038.72;10295302;28;20117;-68
2021/10/20 04:06:19;;;;;;;6.78;6.07;;;;;;;12.19;81.10;100055.31;10271530;28;20066;-64
2021/10/20 04:11:21;;;;;;;7.45;6.22;;;;;;;12.23;81.71;100038.03;10259526;28;20094;-64
2021/10/20 04:16:22;;;;;;;7.15;6.43;;;;;;;12.24;81.44;100022.88;10267972;28;20090;-64
2021/10/20 04:21:23;;;;;;;7.60;6.78;;;;;;;12.20;81.16;100019.63;10264949;28;20059;-64
2021/10/20 04:26:25;;;;;;;8.60;6.70;;;;;;;12.12;80.88;100031.00;10262698;28;20081;-64
2021/10/20 04:31:26;;;;;;;7.20;6.47;;;;;;;12.02;81.72;100025.66;10266910;28;21924;-64
2021/10/20 04:36:28;;;;;;;8.35;7.53;;;;;;;11.99;82.08;100020.63;10261951;28;20054;-64
2021/10/20 04:41:29;;;;;;;9.02;7.28;;;;;;;12.00;82.12;100027.63;10261613;28;20046;-63
2021/10/20 04:46:31;;;;;;;7.63;6.93;;;;;;;11.89;82.24;100033.06;10264948;28;20043;-64
2021/10/20 04:51:32;;;;;;;9.80;6.07;;;;;;;11.87;82.38;100023.50;10271912;28;20043;-63
2021/10/20 04:56:34;;;;;;;6.72;6.13;;;;;;;11.84;82.20;100029.94;10259966;28;20043;-64
2021/10/20 05:01:35;;;;;;;9.13;7.03;;;;;;;11.77;81.64;100004.78;10243253;28;20134;-63
2021/10/20 05:06:37;;;;;;;8.55;6.32;;;;;;;11.81;81.70;100004.41;10258949;28;20468;-64
2021/10/20 05:11:38;;;;;;;8.18;6.32;;;;;;;11.80;82.04;99991.19;10255223;28;20043;-64
2021/10/20 05:16:40;;;;;;;9.27;6.68;;;;;;;11.71;83.10;99992.00;10259088;28;20051;-67
2021/10/20 05:21:41;;;;;;;8.88;7.57;;;;;;;11.72;82.76;99975.88;10263520;28;20670;-63
2021/10/20 05:26:42;;;;;;;10.13;7.40;;;;;;;11.74;83.53;99967.75;10254869;28;20196;-64
2021/10/20 05:31:44;;;;;;;11.93;7.78;;;;;;;11.67;84.07;99959.47;10255146;28;20576;-64
2021/10/20 05:36:45;;;;;;;8.25;6.55;;;;;;;11.61;83.15;99950.19;10254644;28;20082;-63
2021/10/20 05:41:47;;;;;;;6.55;5.90;;;;;;;11.62;84.01;99943.03;10267453;28;20051;-67
2021/10/20 05:46:49;;;;;;;8.20;6.70;;;;;;;11.53;83.74;99936.72;10265622;28;20516;-64
2021/10/20 05:51:51;;;;;;;10.23;6.70;;;;;;;11.58;83.55;99941.63;10271069;28;20050;-64
2021/10/20 05:56:52;;;;;;;7.32;6.13;;;;;;;11.55;83.79;99934.75;10268609;28;20091;-58
2021/10/20 06:01:54;;;;;;;6.75;5.55;;;;;;;11.60;83.82;99929.84;10241203;28;20166;-59
2021/10/20 06:06:55;;;;;;;7.97;6.10;;;;;;;11.79;83.47;99930.84;10239822;28;20140;-59
2021/10/20 06:12:04;;;;;;;7.90;6.18;;;;;;;11.96;83.07;99927.50;10244001;28;20418;-59
2021/10/20 06:17:06;;;;;;;8.02;6.18;;;;;;;12.17;83.44;99934.53;10251723;28;20058;-59
2021/10/20 06:22:07;;;;;;;6.60;6.00;;;;;;;12.08;82.24;99930.03;10245619;28;20063;-64
2021/10/20 06:27:09;;;;;;;6.28;5.68;;;;;;;12.06;81.82;99913.34;10240673;28;20464;-65
2021/10/20 06:32:10;;;;;;;9.10;6.97;;;;;;;12.21;81.40;99906.59;10235743;28;20126;-63
2021/10/20 06:37:12;;;;;;;8.98;6.18;;;;;;;12.35;80.22;99898.13;10247297;28;20193;-63
2021/10/20 06:42:13;;;;;;;7.38;6.05;;;;;;;12.48;79.43;99910.34;10267020;28;20090;-63
2021/10/20 06:47:15;;;;;;;7.93;6.07;;;;;;;12.60;78.80;99887.81;10288236;28;20047;-63
2021/10/20 06:52:16;;;;;;;8.60;6.82;;;;;;;12.79;78.99;99873.56;10284334;28;20047;-63
2021/10/20 06:57:17;;;;;;;8.85;5.60;;;;;;;12.98;77.09;99869.94;10248818;28;20050;-63
2021/10/20 07:02:19;;;;;;;7.22;5.90;;;;;;;12.85;77.99;99896.13;10239526;28;20086;-63
2021/10/20 07:07:20;;;;;;;6.05;5.45;;;;;;;12.80;78.64;99885.91;10249006;28;20050;-63
2021/10/20 07:12:23;;;;;;;5.60;5.10;;;;;;;12.81;79.03;99878.75;10245537;28;20055;-63
2021/10/20 07:17:25;;;;;;;7.15;6.00;;;;;;;12.87;78.35;99868.28;10250186;23;20137;-60
2021/10/20 07:22:27;;;;;;;6.38;5.78;;;;;;;12.88;78.67;99869.13;10232676;28;20146;-60
2021/10/20 07:27:31;;;;;;;10.20;6.13;;;;;;;12.95;78.81;99890.78;10237396;28;20053;-60
2021/10/20 07:32:32;;;;;;;6.47;5.77;;;;;;;12.93;79.18;99898.94;10232140;28;20078;-59
2021/10/20 07:37:34;;;;;;;7.10;6.00;;;;;;;12.93;79.40;99904.28;10225998;28;20063;-58
2021/10/20 07:42:37;;;;;;;7.30;6.57;;;;;;;13.13;78.54;99888.16;10238156;28;20133;-58
2021/10/20 07:47:38;;;;;;;7.05;5.55;;;;;;;13.39;77.58;99888.28;10226807;28;20079;-59
2021/10/20 07:52:41;;;;;;;7.05;6.18;;;;;;;13.41;77.86;99889.00;10229280;28;20415;-58
2021/10/20 07:57:44;;;;;;;7.30;5.82;;;;;;;13.50;77.79;99879.25;10227643;28;20133;-59
2021/10/20 08:02:45;;;;;;;6.57;5.80;;;;;;;13.60;78.01;99864.78;10226896;28;20453;-58
2021/10/20 08:07:47;;;;;;;9.30;6.18;;;;;;;13.71;76.56;99857.53;10228864;28;20515;-59
2021/10/20 08:12:48;;;;;;;7.38;5.90;;;;;;;13.94;76.69;99849.84;10227606;28;20512;-59
2021/10/20 08:17:50;;;;;;;7.53;6.25;;;;;;;13.91;76.30;99834.13;10231859;28;20134;-59
2021/10/20 08:22:52;;;;;;;7.70;6.90;;;;;;;13.99;76.55;99831.53;10231031;28;20066;-59
2021/10/20 08:27:54;;;;;;;7.00;6.28;;;;;;;14.21;76.32;99794.53;10229834;28;20130;-63
2021/10/20 08:32:56;;;;;;;8.25;6.50;;;;;;;14.32;76.41;99781.72;10228394;28;20471;-60
2021/10/20 08:38:03;;;;;;;9.68;8.05;;;;;;;14.47;76.30;99798.00;10232362;28;20078;-60
2021/10/20 08:43:06;;;;;;;7.45;6.50;;;;;;;14.34;76.89;99792.25;10226047;28;20050;-59
2021/10/20 08:48:08;;;;;;;7.35;6.05;;;;;;;14.38;77.55;99825.75;10231883;28;20141;-59
2021/10/20 08:53:10;;;;;;;10.85;6.43;;;;;;;14.42;77.40;99810.19;10227183;28;20050;-60
2021/10/20 08:58:11;;;;;;;6.72;5.93;;;;;;;14.67;76.82;99803.16;10229166;28;20099;-60
2021/10/20 09:03:14;;;;;;;6.75;6.10;;;;;;;14.84;76.32;99794.16;10224129;28;20059;-60
2021/10/20 09:08:15;;;;;;;7.47;6.32;;;;;;;14.95;76.26;99805.59;10231287;28;20070;-62
2021/10/20 09:13:17;;;;;;;6.07;5.47;;;;;;;15.09;75.58;99794.25;10233747;28;20121;-60
2021/10/20 09:18:18;;;;;;;9.25;6.57;;;;;;;15.29;74.70;99775.19;10230752;28;20149;-59
2021/10/20 09:23:21;;;;;;;7.10;5.72;;;;;;;15.56;73.57;99756.06;10232980;28;20162;-60
2021/10/20 09:28:34;;;;;;;6.83;6.07;;;;;;;15.72;72.64;99738.31;10234190;28;20715;-59
2021/10/20 09:34:04;;;;;;;5.65;4.93;;;;;;;15.65;73.12;99748.03;10238521;28;20719;-59
2021/10/20 09:39:08;;;;;;;6.10;4.57;;;;;;;15.69;73.53;99738.66;10230732;28;20126;-60
2021/10/20 09:44:12;;;;;;;5.55;5.05;;;;;;;15.59;73.68;99721.88;10243227;28;20149;-60
2021/10/20 09:49:23;;;;;;;6.57;5.97;;;;;;;15.69;74.34;99725.22;10237213;28;20122;-60
2021/10/20 09:54:33;;;;;;;5.60;5.10;;;;;;;15.90;73.67;99720.19;10235559;28;20063;-60
2021/10/20 09:59:34;;;;;;;5.53;4.60;;;;;;;16.24;72.18;99727.16;10234346;28;20146;-60
2021/10/20 10:04:37;;;;;;;7.32;5.68;;;;;;;16.48;72.40;99695.78;10228488;28;20568;-60
2021/10/20 10:09:39;;;;;;;5.43;4.93;;;;;;;17.22;69.67;99684.63;10232542;28;20139;-61
2021/10/20 10:14:51;;;;;;;6.97;4.55;;;;;;;17.10;68.71;99686.06;10230465;28;20122;-60
2021/10/20 10:20:13;;;;;;;6.45;4.82;;;;;;;17.00;69.98;99686.28;10250172;28;20038;-59
2021/10/20 10:25:14;;;;;;;6.95;5.05;;;;;;;17.05;69.67;99686.56;10265337;28;20093;-59
2021/10/20 10:30:18;;;;;;;6.05;4.65;;;;;;;17.65;67.17;99663.38;10270634;28;20118;-59
2021/10/20 10:35:19;;;;;;;7.20;5.50;;;;;;;17.28;68.09;99659.69;10267286;28;20109;-59
2021/10/20 10:40:23;;;;;;;6.30;4.90;;;;;;;17.00;69.04;99655.88;10270133;28;20139;-59
2021/10/20 10:45:25;;;;;;;6.05;4.57;;;;;;;16.87;69.21;99646.53;10275976;28;20429;-60
2021/10/20 10:50:49;;;;;;;5.30;4.80;;;;;;;16.52;69.95;99640.72;10272400;28;20089;-60
2021/10/20 10:56:01;;;;;;;6.85;6.18;;;;;;;16.27;70.50;99634.63;10267407;28;20061;-60
2021/10/20 11:01:03;;;;;;;5.50;4.63;;;;;;;16.35;70.50;99628.38;10266301;28;20160;-59
2021/10/20 11:06:04;;;;;;;5.25;4.70;;;;;;;16.40;70.38;99612.59;10264806;28;20053;-59
2021/10/20 11:11:06;;;;;;;4.82;4.20;;;;;;;16.37;70.43;99596.81;10268628;28;20461;-60
2021/10/20 11:16:08;;;;;;;5.70;5.15;;;;;;;16.35;70.64;99574.66;10268695;28;20053;-62
2021/10/20 11:21:09;;;;;;;6.78;4.40;;;;;;;16.42;70.11;99575.63;10277747;28;20105;-60
2021/10/20 11:26:11;;;;;;;5.75;3.75;;;;;;;16.42;69.82;99572.94;10266615;28;20101;-60
2021/10/20 11:31:12;;;;;;;5.13;4.45;;;;;;;16.54;70.06;99566.16;10276097;28;20136;-60
2021/10/20 11:36:19;;;;;;;7.60;4.97;;;;;;;16.53;70.35;99563.63;10266722;28;20042;-58
2021/10/20 11:41:21;;;;;;;5.88;3.83;;;;;;;16.50;70.37;99564.84;10269389;28;20138;-59
2021/10/20 11:46:27;;;;;;;4.55;3.67;;;;;;;16.38;70.94;99539.41;10265045;28;20074;-60
2021/10/20 11:51:30;;;;;;;6.18;4.22;;;;;;;16.45;70.75;99524.25;10260948;28;20055;-60
2021/10/20 11:56:32;;;;;;;4.85;3.78;;;;;;;16.55;71.09;99550.88;10257653;28;20137;-60
2021/10/20 12:01:34;;;;;;;5.45;3.78;;;;;;;16.42;70.86;99546.09;10267934;28;20130;-60
2021/10/20 12:06:35;;;;;;;5.65;3.72;;;;;;;16.36;71.37;99562.91;10266602;28;20054;-60
2021/10/20 12:11:37;;;;;;;4.88;4.05;;;;;;;16.28;71.87;99538.81;10268522;28;20081;-61
2021/10/20 12:16:40;;;;;;;4.78;4.00;;;;;;;16.34;72.39;99538.94;10267825;28;20058;-60
2021/10/20 12:21:43;;;;;;;4.53;4.05;;;;;;;16.40;72.29;99527.47;10263353;28;20544;-60
2021/10/20 12:26:45;;;;;;;5.45;4.55;;;;;;;16.34;72.45;99528.19;10265091;28;20145;-60
2021/10/20 12:31:47;;;;;;;6.43;4.10;;;;;;;16.34;72.58;99514.75;10268718;28;20499;-59
2021/10/20 12:36:50;;;;;;;5.00;3.65;;;;;;;16.33;72.79;99513.06;10264828;28;20074;-60
2021/10/20 12:41:51;;;;;;;4.50;3.92;;;;;;;16.34;73.15;99511.25;10271839;28;20129;-60
2021/10/20 12:46:53;;;;;;;6.18;4.13;;;;;;;16.27;73.30;99489.63;10269930;28;20045;-60
2021/10/20 12:51:55;;;;;;;4.80;4.40;;;;;;;16.31;73.68;99498.19;10260405;28;20150;-60
2021/10/20 12:57:14;;;;;;;5.82;4.10;;;;;;;16.35;73.61;99492.25;10259302;28;20053;-60
2021/10/20 13:02:15;;;;;;;7.40;4.57;;;;;;;16.39;73.80;99479.31;10264134;28;20132;-60
2021/10/20 13:07:17;;;;;;;6.15;4.30;;;;;;;16.46;73.86;99456.09;10273650;28;20088;-60
2021/10/20 13:12:18;;;;;;;6.00;4.65;;;;;;;16.60;73.62;99444.53;10272061;28;20087;-60
2021/10/20 13:17:20;;;;;;;4.95;4.22;;;;;;;16.81;73.42;99432.22;10270159;28;20055;-60
2021/10/20 13:22:23;;;;;;;7.17;4.67;;;;;;;16.99;72.66;99418.47;10277058;28;20427;-63
2021/10/20 13:27:26;;;;;;;5.72;4.38;;;;;;;17.14;71.81;99399.63;10253130;23;20171;-65
2021/10/20 13:32:27;;;;;;;6.85;4.72;;;;;;;17.05;72.61;99416.88;10233642;28;20142;-65
2021/10/20 13:37:30;;;;;;;6.10;4.68;;;;;;;17.02;73.01;99414.56;10232952;28;20074;-64
2021/10/20 13:42:32;;;;;;;6.18;4.82;;;;;;;16.90;73.82;99420.44;10234825;28;20507;-64
2021/10/20 13:47:35;;;;;;;6.53;4.68;;;;;;;16.86;74.33;99402.97;10239549;28;20554;-62
2021/10/20 13:52:36;;;;;;;7.75;5.90;;;;;;;16.86;75.60;99391.34;10232554;28;20055;-63
2021/10/20 13:57:38;;;;;;;7.15;5.97;;;;;;;16.88;77.16;99409.00;10240309;28;20142;-66
2021/10/20 14:02:39;;;;;;;7.53;5.00;;;;;;;16.84;78.17;99404.97;10236589;28;20063;-63
2021/10/20 14:07:41;;;;;;;6.97;5.50;;;;;;;16.83;78.83;99392.59;10239854;28;20058;-64
2021/10/20 14:12:43;;;;;;;6.10;5.50;;;;;;;16.87;78.98;99388.50;10229333;28;20553;-66
2021/10/20 14:17:44;;;;;;;7.20;5.03;;;;;;;16.90;80.28;99385.50;10255880;28;20047;-66
2021/10/20 14:22:45;;;;;;;7.22;5.25;;;;;;;16.98;80.70;99379.19;10243468;28;20645;-65
2021/10/20 14:27:47;;;;;;;8.73;6.00;;;;;;;16.99;81.10;99369.25;10240676;28;20548;-63
2021/10/20 14:32:48;;;;;;;6.60;5.50;;;;;;;17.26;80.53;99357.81;10237779;28;20668;-65
2021/10/20 14:37:50;;;;;;;5.05;4.57;;;;;;;17.43;79.35;99349.50;10238779;28;20446;-62
2021/10/20 14:42:54;;;;;;;6.63;5.07;;;;;;;17.94;76.99;99338.66;10235384;28;20078;-66
2021/10/20 14:47:58;;;;;;;;;;;;;;;18.43;74.15;99338.81;10237194;28;20058;-65
2021/10/20 14:53:00;;;;;;;6.13;4.78;;;;;;;17.97;75.31;99340.09;10235549;28;20053;-66
2021/10/20 14:58:01;;;;;;;8.02;7.32;;;;;;;17.76;76.26;99339.09;10236404;28;20082;-66
2021/10/20 15:03:02;;;;;;;10.40;9.48;;;;;;;17.73;76.39;99327.84;10237996;28;20071;-66
2021/10/20 15:08:04;;;;;;;4.97;4.47;;;;;;;17.70;76.90;99322.84;10230242;28;20692;-64
2021/10/20 15:13:07;;;;;;;5.25;4.75;;;;;;;17.65;77.16;99326.13;10234100;28;20050;-66
2021/10/20 15:18:10;;;;;;;8.48;7.68;;;;;;;17.58;77.69;99331.47;10237120;28;20134;-65
2021/10/20 15:23:11;;;;;;;8.97;8.27;;;;;;;17.52;78.00;99334.91;10231710;28;20044;-62
2021/10/20 15:28:13;;;;;;;8.18;5.05;;;;;;;17.52;78.30;99328.69;10238441;28;20533;-65
2021/10/20 15:33:14;;;;;;;6.38;4.50;;;;;;;17.52;78.66;99334.91;10237238;28;20081;-62
2021/10/20 15:38:18;;;;;;;5.10;4.60;;;;;;;17.48;79.47;99341.69;10229870;28;20664;-65
2021/10/20 15:43:20;;;;;;;;;;;;;;;17.48;80.50;99337.13;10226022;28;20550;-64
2021/10/20 15:48:21;;;;;;;5.38;4.88;;;;;;;17.49;80.30;99327.22;10236821;28;20005;-65
2021/10/20 15:53:24;;;;;;;6.35;5.75;;;;;;;17.49;81.22;99332.63;10232704;28;20146;-65
2021/10/20 15:58:27;;;;;;;7.45;4.82;;;;;;;17.46;81.61;99325.75;10222461;28;20051;-65
2021/10/20 16:03:28;;;;;;;5.68;4.82;;;;;;;17.47;82.08;99310.44;10225549;28;20082;-66
2021/10/20 16:08:30;;;;;;;5.18;4.68;;;;;;;17.42;82.16;99310.19;10226593;28;20054;-64
2021/10/20 16:13:33;;;;;;;5.07;4.45;;;;;;;17.36;83.28;99310.94;10227304;28;20886;-64
2021/10/20 16:18:35;;;;;;;4.60;3.87;;;;;;;17.36;83.07;99308.25;10243691;28;20055;-64
2021/10/20 16:23:36;;;;;;;8.13;4.85;;;;;;;17.34;83.70;99300.38;10222670;28;20154;-64
2021/10/20 16:28:38;;;;;;;5.28;4.75;;;;;;;17.30;84.22;99297.22;10229690;28;20105;-65
2021/10/20 16:33:44;;;;;;;6.90;6.30;;;;;;;17.27;84.55;99270.72;10230029;28;20050;-64
2021/10/20 16:38:45;;;;;;;8.35;6.65;;;;;;;17.27;85.29;99276.09;10228049;28;20154;-65
2021/10/20 16:43:47;;;;;;;9.98;6.63;;;;;;;17.19;85.78;99249.34;10222027;28;20058;-63
2021/10/20 16:48:48;;;;;;;6.50;5.90;;;;;;;17.08;86.59;99263.25;10217013;28;20154;-61
2021/10/20 16:53:50;;;;;;;6.50;5.68;;;;;;;16.98;87.88;99249.28;10216070;28;20055;-62
2021/10/20 16:58:52;;;;;;;6.00;5.38;;;;;;;16.92;87.45;99262.47;10230665;28;20063;-64
2021/10/20 17:03:53;;;;;;;6.70;5.95;;;;;;;16.93;87.88;99250.72;10224576;28;20521;-64
2021/10/20 17:08:55;;;;;;;8.13;6.65;;;;;;;16.91;88.62;99250.06;10232763;28;20064;-65
2021/10/20 17:14:01;;;;;;;8.32;6.72;;;;;;;16.83;88.89;99241.22;10231996;28;20459;-66
2021/10/20 17:19:03;;;;;;;8.25;7.30;;;;;;;16.78;89.51;99223.00;10235652;28;20075;-66
2021/10/20 17:24:04;;;;;;;7.90;6.50;;;;;;;16.80;89.20;99220.97;10225247;28;20097;-63
2021/10/20 17:29:06;;;;;;;5.93;5.43;;;;;;;16.75;90.15;99224.22;10231506;28;20765;-67
2021/10/20 17:34:27;;;;;;;6.18;5.47;;;;;;;16.71;90.67;99211.31;10224690;28;20743;-64
2021/10/20 17:39:29;;;;;;;6.47;5.88;;;;;;;16.66;90.84;99214.56;10226664;28;20078;-65
2021/10/20 17:44:31;;;;;;;7.18;6.45;;;;;;;16.72;90.59;99213.00;10231165;28;20126;-61
2021/10/20 17:49:32;;;;;;;6.00;5.40;;;;;;;16.79;90.11;99209.34;10233354;28;20149;-59
2021/10/20 17:54:35;;;;;;;6.22;5.60;;;;;;;16.82;89.62;99208.16;10232829;28;20676;-59
2021/10/20 17:59:36;;;;;;;7.28;6.57;;;;;;;16.86;89.52;99200.53;10236659;28;20059;-58
2021/10/20 18:04:38;;;;;;;6.97;5.75;;;;;;;16.83;89.49;99207.16;10233713;28;20074;-61
2021/10/20 18:09:40;;;;;;;6.18;5.15;;;;;;;16.79;89.59;99131.44;10241356;28;20166;-59
2021/10/20 18:14:42;;;;;;;6.55;5.95;;;;;;;16.70;90.25;99154.06;10232497;28;20134;-66
2021/10/20 18:19:43;;;;;;;6.68;5.63;;;;;;;16.70;90.37;99154.06;10237459;28;20145;-65
2021/10/20 18:24:45;;;;;;;6.22;5.22;;;;;;;16.70;90.23;99172.06;10232945;28;20425;-64
2021/10/20 18:29:47;;;;;;;7.75;5.70;;;;;;;16.70;90.39;99139.81;10217057;28;20050;-63
2021/10/20 18:34:49;;;;;;;8.00;6.05;;;;;;;16.71;90.43;99146.84;10221216;28;20055;-64
2021/10/20 18:39:50;;;;;;;8.05;5.57;;;;;;;16.70;90.72;99134.44;10215063;28;20230;-63
2021/10/20 18:44:52;;;;;;;5.90;5.40;;;;;;;16.71;90.55;99120.81;10228143;28;20129;-63
2021/10/20 18:49:55;;;;;;;7.07;5.57;;;;;;;16.72;90.43;99127.00;10215165;28;20183;-63
2021/10/20 18:54:56;;;;;;;6.10;5.50;;;;;;;16.67;90.82;99116.03;10229035;28;20102;-61
2021/10/20 18:59:57;;;;;;;7.25;6.55;;;;;;;16.58;91.72;99113.44;10227486;28;20158;-63
2021/10/20 19:05:00;;;;;;;7.38;6.72;;;;;;;16.53;92.10;99112.34;10230831;28;20142;-63
2021/10/20 19:10:04;;;;;;;6.60;6.00;;;;;;;16.41;94.33;99104.78;10216265;28;20113;-63
2021/10/20 19:15:06;;;;;;;8.13;7.32;;;;;;;16.30;95.09;99064.16;10223068;28;20209;-64
2021/10/20 19:20:08;;;;;;;7.38;6.10;;;;;;;16.25;95.98;99044.09;10225230;28;20178;-65
2021/10/20 19:25:11;;;;;;;7.32;5.93;;;;;;;16.25;95.34;99036.03;10234270;28;20078;-63
2021/10/20 19:30:16;;;;;;;5.07;4.65;;;;;;;16.22;95.03;99052.53;10231958;28;20062;-63
2021/10/20 19:35:18;;;;;;;9.68;5.43;;;;;;;16.18;95.80;99045.88;10230278;28;20059;-63
2021/10/20 19:40:19;;;;;;;8.82;5.20;;;;;;;16.21;96.37;99058.09;10228864;28;20551;-64
2021/10/20 19:45:21;;;;;;;6.20;5.68;;;;;;;16.21;97.18;98983.75;10226966;28;20111;-64
2021/10/20 19:50:22;;;;;;;6.85;6.15;;;;;;;16.21;98.01;98966.81;10229714;28;20079;-65
2021/10/20 19:55:24;;;;;;;6.72;6.15;;;;;;;16.23;98.25;98995.13;10231035;28;20074;-64
2021/10/20 20:00:27;;;;;;;8.65;6.20;;;;;;;16.21;99.00;98958.75;10229751;28;20151;-65
2021/10/20 20:05:28;;;;;;;5.63;4.80;;;;;;;16.23;98.35;98962.09;10226276;28;20058;-67
2021/10/20 20:10:30;;;;;;;5.18;4.68;;;;;;;16.21;98.99;98985.59;10231534;28;20137;-63
2021/10/20 20:15:31;;;;;;;6.05;4.35;;;;;;;16.18;99.93;98976.09;10227290;28;20063;-66
2021/10/20 20:20:33;;;;;;;5.35;4.32;;;;;;;16.20;99.84;98968.66;10229993;28;20134;-65
2021/10/20 20:25:35;;;;;;;4.47;4.07;;;;;;;16.22;99.67;98950.50;10223930;28;20131;-65
2021/10/20 20:30:36;;;;;;;5.43;3.97;;;;;;;16.24;100.00;98943.09;10226455;28;20109;-65
2021/10/20 20:35:37;;;;;;;5.15;3.83;;;;;;;16.21;100.00;98922.00;10226656;28;20198;-66
2021/10/20 20:40:39;;;;;;;5.43;4.53;;;;;;;16.19;100.00;98924.03;10224118;28;20148;-65
2021/10/20 20:45:41;;;;;;;5.55;5.03;;;;;;;16.21;100.00;98934.59;10227648;28;20110;-65
2021/10/20 20:50:44;;;;;;;4.63;4.15;;;;;;;16.21;100.00;98922.00;10228347;28;20110;-65
2021/10/20 20:55:49;;;;;;;6.07;5.18;;;;;;;16.25;100.00;98925.13;10227102;28;20220;-65
2021/10/20 21:00:52;;;;;;;6.60;5.30;;;;;;;16.24;100.00;98910.88;10227194;28;20055;-63
2021/10/20 21:05:54;;;;;;;4.95;4.55;;;;;;;16.28;99.81;98889.03;10213165;28;20555;-65
2021/10/20 21:10:55;;;;;;;5.35;4.85;;;;;;;16.26;99.61;98892.72;10213845;28;20055;-65
2021/10/20 21:15:57;;;;;;;5.00;4.60;;;;;;;16.23;98.93;98892.28;10218267;28;20142;-64
2021/10/20 21:21:00;;;;;;;6.53;5.20;;;;;;;16.30;98.52;98897.69;10227114;28;20131;-65
2021/10/20 21:26:01;;;;;;;5.13;4.63;;;;;;;16.28;98.16;98886.34;10215625;28;20156;-65
2021/10/20 21:31:03;;;;;;;5.07;4.53;;;;;;;16.25;98.00;98869.56;10221626;28;20089;-63
2021/10/20 21:36:04;;;;;;;5.40;4.90;;;;;;;16.29;97.26;98866.50;10224540;28;20163;-66
2021/10/20 21:41:07;;;;;;;6.53;5.55;;;;;;;16.30;97.33;98886.97;10227893;28;20117;-66
2021/10/20 21:46:08;;;;;;;5.95;5.05;;;;;;;16.24;97.75;98865.25;10235680;28;20094;-65
2021/10/20 21:51:10;;;;;;;5.93;5.32;;;;;;;16.20;97.91;98806.78;10228744;28;20531;-65
2021/10/20 21:56:11;;;;;;;6.63;4.95;;;;;;;16.13;98.43;98828.19;10228583;28;20097;-65
2021/10/20 22:01:12;;;;;;;5.43;4.93;;;;;;;16.19;98.58;98830.09;10223717;28;20309;-66
2021/10/20 22:06:14;;;;;;;6.07;4.70;;;;;;;16.22;98.39;98826.19;10227851;28;20051;-65
2021/10/20 22:11:16;;;;;;;6.65;4.70;;;;;;;16.18;98.15;98788.19;10224296;28;20063;-66
2021/10/20 22:16:18;;;;;;;5.68;4.75;;;;;;;16.08;98.84;98642.75;10222077;28;20055;-62
2021/10/20 22:21:37;;;;;;;6.53;5.88;;;;;;;16.06;99.15;98736.03;10226450;28;20102;-63
2021/10/20 22:26:39;;;;;;;4.88;4.47;;;;;;;16.06;99.95;98773.59;10225647;28;20101;-64
2021/10/20 22:31:40;;;;;;;5.90;5.18;;;;;;;16.15;99.18;98740.22;10226912;28;20507;-64
2021/10/20 22:36:42;;;;;;;6.07;5.57;;;;;;;16.16;99.27;98773.28;10220097;28;20067;-64
2021/10/20 22:41:43;;;;;;;8.18;5.75;;;;;;;16.09;98.80;98789.31;10223609;28;20442;-62
2021/10/20 22:46:45;;;;;;;7.50;5.50;;;;;;;16.07;99.64;98780.66;10232883;28;20140;-65
2021/10/20 22:51:48;;;;;;;6.13;5.10;;;;;;;15.99;100.00;98740.53;10226025;28;20067;-64
2021/10/20 22:56:49;;;;;;;6.00;5.40;;;;;;;15.94;100.00;98697.34;10232595;28;20212;-65
2021/10/20 23:01:51;;;;;;;6.43;5.22;;;;;;;15.82;100.00;98703.28;10224893;28;20075;-64
2021/10/20 23:06:52;;;;;;;5.15;4.40;;;;;;;15.74;100.00;98657.78;10231605;28;20135;-65
2021/10/20 23:11:54;;;;;;;4.85;3.58;;;;;;;15.66;100.00;98634.63;10230077;28;20119;-63
2021/10/20 23:16:55;;;;;;;5.28;3.80;;;;;;;15.59;100.00;98643.66;10225963;28;20070;-65
2021/10/20 23:21:59;;;;;;;4.25;3.50;;;;;;;15.57;98.71;98598.25;10226982;28;20047;-63
2021/10/20 23:27:01;;;;;;;3.95;2.60;;;;;;;15.53;97.17;98493.22;10216851;28;20070;-63